createdAt,value
2017-06-28T00:01:20.318Z,78.70
2017-06-28T00:03:48.611Z,78.60
2017-06-28T00:06:16.888Z,78.80
2017-06-28T00:08:45.940Z,80.40
2017-06-28T00:11:14.216Z,80.30
2017-06-28T00:13:42.508Z,80.10
2017-06-28T00:16:10.775Z,79.90
2017-06-28T00:18:39.072Z,78.90
2017-06-28T00:21:07.347Z,78.80
2017-06-28T00:23:35.632Z,79.10
2017-06-28T00:26:03.905Z,79.00
2017-06-28T00:28:32.178Z,79.00
2017-06-28T00:31:00.470Z,78.70
2017-06-28T00:33:28.746Z,78.70
2017-06-28T00:35:57.036Z,78.80
2017-06-28T00:38:26.092Z,79.10
2017-06-28T00:40:54.376Z,79.10
2017-06-28T00:43:22.648Z,79.10
2017-06-28T00:45:50.947Z,79.10
2017-06-28T00:48:19.223Z,79.00
2017-06-28T00:50:47.521Z,79.20
2017-06-28T00:53:16.633Z,79.40
2017-06-28T00:55:44.920Z,79.40
2017-06-28T00:58:13.243Z,79.50
2017-06-28T01:03:41.935Z,80.10
2017-06-28T01:06:10.220Z,80.10
2017-06-28T01:08:38.491Z,79.50
2017-06-28T01:11:06.794Z,79.10
2017-06-28T01:13:35.069Z,78.80
2017-06-28T01:16:03.336Z,79.00
2017-06-28T01:18:31.634Z,79.50
2017-06-28T01:20:59.910Z,80.00
2017-06-28T01:23:28.190Z,79.80
2017-06-28T01:25:56.468Z,80.30
2017-06-28T01:28:24.754Z,81.00
2017-06-28T01:30:53.030Z,80.30
2017-06-28T01:33:21.323Z,79.40
2017-06-28T01:35:49.600Z,79.00
2017-06-28T01:38:17.872Z,79.30
2017-06-28T01:40:46.166Z,79.60
2017-06-28T01:43:15.199Z,80.10
2017-06-28T01:45:43.497Z,79.90
2017-06-28T01:48:11.779Z,78.60
2017-06-28T01:50:40.067Z,78.40
2017-06-28T01:53:08.335Z,74.90
2017-06-28T01:55:36.619Z,73.40
2017-06-28T01:58:04.885Z,72.70
2017-06-28T02:00:33.180Z,72.20
2017-06-28T02:03:01.452Z,72.00
2017-06-28T02:05:29.715Z,71.70
2017-06-28T02:07:58.000Z,71.60
2017-06-28T02:10:26.267Z,71.30
2017-06-28T02:12:54.562Z,71.00
2017-06-28T02:15:22.837Z,70.80
2017-06-28T02:17:51.116Z,71.20
2017-06-28T02:20:19.384Z,71.80
2017-06-28T02:22:47.690Z,71.00
2017-06-28T02:25:16.728Z,71.90
2017-06-28T02:27:44.991Z,71.80
2017-06-28T02:30:13.280Z,72.80
2017-06-28T02:32:41.551Z,72.60
2017-06-28T02:35:09.842Z,72.60
2017-06-28T02:37:38.099Z,72.00
2017-06-28T02:40:06.397Z,72.40
2017-06-28T02:42:34.654Z,72.60
2017-06-28T02:45:02.936Z,72.50
2017-06-28T02:47:31.212Z,73.80
2017-06-28T02:49:59.507Z,74.60
2017-06-28T02:52:27.779Z,76.00
2017-06-28T02:54:56.055Z,74.80
2017-06-28T02:57:24.361Z,75.80
2017-06-28T02:59:52.629Z,76.40
2017-06-28T03:02:20.912Z,75.70
2017-06-28T03:04:49.183Z,75.90
2017-06-28T03:07:26.209Z,76.80
2017-06-28T03:09:55.247Z,78.30
2017-06-28T03:12:23.535Z,78.10
2017-06-28T03:14:51.799Z,78.10
2017-06-28T03:17:20.084Z,76.90
2017-06-28T03:19:48.383Z,76.20
2017-06-28T03:22:16.655Z,77.30
2017-06-28T03:24:44.927Z,76.20
2017-06-28T03:27:13.195Z,77.10
2017-06-28T03:29:41.488Z,77.80
2017-06-28T03:32:09.762Z,77.10
2017-06-28T03:34:38.052Z,77.10
2017-06-28T03:37:06.319Z,77.70
2017-06-28T03:39:34.620Z,77.40
2017-06-28T03:42:03.665Z,78.90
2017-06-28T03:44:31.951Z,79.00
2017-06-28T03:47:00.221Z,78.90
2017-06-28T03:49:28.530Z,79.30
2017-06-28T03:51:56.823Z,78.80
2017-06-28T03:54:25.100Z,78.40
2017-06-28T03:56:54.156Z,79.10
2017-06-28T03:59:22.430Z,79.10
2017-06-28T04:01:50.732Z,80.20
2017-06-28T04:04:18.997Z,81.00
2017-06-28T04:06:47.292Z,81.20
2017-06-28T04:09:15.560Z,81.40
2017-06-28T04:11:43.884Z,81.20
2017-06-28T04:14:12.158Z,81.00
2017-06-28T04:16:40.425Z,81.30
2017-06-28T04:19:09.494Z,81.30
2017-06-28T04:21:37.760Z,81.30
2017-06-28T04:24:06.043Z,80.90
2017-06-28T04:26:34.315Z,81.20
2017-06-28T04:29:02.605Z,81.30
2017-06-28T04:31:30.879Z,81.80
2017-06-28T04:33:59.166Z,81.70
2017-06-28T04:36:28.216Z,81.00
2017-06-28T04:38:56.506Z,81.00
2017-06-28T04:41:24.775Z,81.00
2017-06-28T04:43:53.064Z,80.90
2017-06-28T04:46:21.338Z,80.50
2017-06-28T04:48:49.595Z,80.80
2017-06-28T04:51:17.903Z,78.90
2017-06-28T04:53:46.220Z,79.30
2017-06-28T04:56:14.503Z,79.40
2017-06-28T04:58:42.779Z,78.90
2017-06-28T05:01:11.064Z,78.90
2017-06-28T05:03:39.332Z,78.20
2017-06-28T05:06:07.622Z,77.90
2017-06-28T05:08:35.905Z,78.30
2017-06-28T05:11:04.203Z,78.50
2017-06-28T05:13:32.676Z,78.30
2017-06-28T05:16:00.985Z,78.70
2017-06-28T05:18:29.245Z,78.40
2017-06-28T05:20:57.516Z,79.50
2017-06-28T05:23:25.807Z,78.90
2017-06-28T05:25:54.078Z,78.50
2017-06-28T05:28:22.367Z,78.70
2017-06-28T05:30:50.623Z,79.20
2017-06-28T05:33:18.907Z,78.90
2017-06-28T05:35:47.178Z,78.70
2017-06-28T05:38:15.463Z,77.90
2017-06-28T05:40:43.739Z,78.60
2017-06-28T05:43:12.027Z,78.50
2017-06-28T05:45:40.297Z,78.30
2017-06-28T05:48:08.589Z,77.90
2017-06-28T05:50:36.855Z,78.10
2017-06-28T05:53:05.127Z,78.10
2017-06-28T05:55:33.432Z,78.10
2017-06-28T05:58:01.715Z,77.50
2017-06-28T06:00:30.770Z,77.90
2017-06-28T06:02:59.053Z,77.60
2017-06-28T06:05:27.336Z,76.50
2017-06-28T06:07:55.611Z,77.30
2017-06-28T06:10:23.899Z,76.50
2017-06-28T06:12:52.162Z,76.00
2017-06-28T06:15:20.448Z,76.40
2017-06-28T06:17:48.719Z,76.30
2017-06-28T06:20:17.006Z,78.10
2017-06-28T06:22:45.270Z,76.70
2017-06-28T06:25:13.539Z,77.50
2017-06-28T06:27:41.818Z,77.60
2017-06-28T06:30:10.083Z,75.80
2017-06-28T06:32:38.368Z,76.60
2017-06-28T06:35:06.645Z,75.50
2017-06-28T06:37:34.936Z,75.30
2017-06-28T06:40:03.199Z,75.70
2017-06-28T06:42:31.483Z,76.10
2017-06-28T06:44:59.753Z,76.10
2017-06-28T06:47:28.040Z,75.80
2017-06-28T06:49:56.316Z,76.50
2017-06-28T06:52:24.916Z,76.70
2017-06-28T06:54:53.175Z,75.30
2017-06-28T06:57:21.445Z,74.80
2017-06-28T06:59:49.726Z,75.00
2017-06-28T07:02:18.003Z,75.30
2017-06-28T07:04:46.287Z,74.80
2017-06-28T07:07:14.564Z,74.40
2017-06-28T07:09:42.852Z,74.60
2017-06-28T07:12:11.119Z,73.90
2017-06-28T07:14:39.408Z,74.00
2017-06-28T07:17:07.676Z,75.20
2017-06-28T07:19:35.958Z,74.70
2017-06-28T07:22:04.237Z,75.20
2017-06-28T07:24:32.527Z,74.60
2017-06-28T07:27:00.798Z,74.40
2017-06-28T07:29:29.091Z,73.90
2017-06-28T07:31:58.127Z,73.60
2017-06-28T07:34:26.405Z,73.40
2017-06-28T07:36:54.715Z,73.30
2017-06-28T07:39:22.974Z,74.30
2017-06-28T07:41:51.263Z,73.10
2017-06-28T07:44:19.532Z,72.90
2017-06-28T07:46:47.812Z,72.50
2017-06-28T07:49:16.084Z,72.40
2017-06-28T07:51:44.368Z,73.90
2017-06-28T07:54:12.635Z,71.40
2017-06-28T07:56:40.916Z,71.70
2017-06-28T07:59:09.182Z,72.00
2017-06-28T08:01:37.474Z,69.80
2017-06-28T08:04:05.747Z,69.90
2017-06-28T08:06:34.017Z,70.50
2017-06-28T08:09:02.305Z,70.40
2017-06-28T08:11:30.567Z,71.50
2017-06-28T08:13:58.855Z,70.60
2017-06-28T08:16:27.120Z,70.80
2017-06-28T08:18:55.403Z,71.00
2017-06-28T08:21:23.659Z,70.50
2017-06-28T08:23:51.948Z,70.80
2017-06-28T08:26:20.216Z,70.40
2017-06-28T08:28:48.510Z,69.20
2017-06-28T08:31:16.781Z,70.10
2017-06-28T08:33:45.082Z,70.00
2017-06-28T08:36:13.332Z,71.80
2017-06-28T08:38:41.603Z,69.80
2017-06-28T08:41:09.888Z,68.60
2017-06-28T08:43:38.150Z,69.40
2017-06-28T08:46:06.437Z,68.10
2017-06-28T08:48:34.703Z,67.60
2017-06-28T08:51:02.983Z,66.70
2017-06-28T08:53:31.251Z,66.80
2017-06-28T08:55:59.544Z,68.00
2017-06-28T08:58:27.803Z,68.20
2017-06-28T09:00:56.085Z,67.00
2017-06-28T09:03:24.352Z,66.80
2017-06-28T09:05:53.400Z,65.10
2017-06-28T09:08:21.665Z,65.10
2017-06-28T09:10:49.955Z,65.20
2017-06-28T09:13:18.215Z,65.50
2017-06-28T09:15:46.505Z,65.90
2017-06-28T09:18:14.791Z,66.00
2017-06-28T09:20:43.051Z,64.30
2017-06-28T09:23:11.343Z,64.90
2017-06-28T09:25:39.622Z,62.90
2017-06-28T09:28:07.915Z,62.70
2017-06-28T09:30:36.182Z,61.70
2017-06-28T09:33:04.475Z,62.30
2017-06-28T09:35:32.759Z,61.40
2017-06-28T09:38:01.815Z,60.90
2017-06-28T09:40:30.095Z,60.90
2017-06-28T09:42:58.386Z,58.80
2017-06-28T09:45:26.669Z,59.00
2017-06-28T09:47:54.919Z,58.60
2017-06-28T09:50:23.211Z,57.20
2017-06-28T09:52:51.480Z,57.80
2017-06-28T09:55:19.772Z,57.40
2017-06-28T09:57:48.039Z,57.20
2017-06-28T10:00:16.323Z,56.80
2017-06-28T10:02:44.596Z,56.60
2017-06-28T10:05:12.881Z,55.40
2017-06-28T10:07:41.152Z,55.50
2017-06-28T10:10:09.435Z,53.50
2017-06-28T10:12:37.714Z,52.20
2017-06-28T10:15:05.979Z,53.10
2017-06-28T10:17:34.259Z,52.80
2017-06-28T10:20:02.532Z,52.40
2017-06-28T10:22:30.820Z,52.60
2017-06-28T10:24:59.092Z,51.40
2017-06-28T10:27:27.390Z,51.10
2017-06-28T10:29:57.952Z,50.00
2017-06-28T10:32:26.243Z,50.70
2017-06-28T10:34:54.516Z,50.20
2017-06-28T10:37:22.805Z,50.60
2017-06-28T10:39:51.084Z,50.10
2017-06-28T10:42:19.375Z,51.30
2017-06-28T10:44:47.647Z,50.40
2017-06-28T10:47:15.963Z,50.00
2017-06-28T10:49:45.004Z,49.70
2017-06-28T10:52:13.275Z,49.70
2017-06-28T10:54:41.564Z,48.40
2017-06-28T10:57:09.827Z,49.20
2017-06-28T10:59:38.121Z,49.00
2017-06-28T11:02:06.395Z,48.10
2017-06-28T11:04:34.688Z,48.50
2017-06-28T11:07:02.963Z,48.00
2017-06-28T11:09:31.262Z,47.80
2017-06-28T11:11:59.524Z,48.80
2017-06-28T11:14:27.826Z,47.80
2017-06-28T11:16:56.863Z,47.40
2017-06-28T11:19:25.172Z,47.40
2017-06-28T11:21:53.456Z,47.80
2017-06-28T11:24:21.727Z,47.70
2017-06-28T11:26:50.015Z,47.70
2017-06-28T11:29:18.300Z,45.80
2017-06-28T11:31:47.363Z,46.60
2017-06-28T11:34:15.640Z,46.10
2017-06-28T11:36:43.937Z,45.50
2017-06-28T11:39:12.207Z,46.10
2017-06-28T11:41:40.503Z,46.10
2017-06-28T11:44:08.773Z,45.80
2017-06-28T11:46:37.072Z,44.50
2017-06-28T11:49:06.118Z,44.80
2017-06-28T11:51:34.408Z,44.80
2017-06-28T11:54:02.683Z,43.70
2017-06-28T11:56:30.991Z,43.60
2017-06-28T11:58:59.275Z,44.90
2017-06-28T12:01:27.559Z,43.20
2017-06-28T12:03:55.872Z,42.40
2017-06-28T12:06:24.170Z,42.80
2017-06-28T12:08:52.448Z,44.50
2017-06-28T12:11:20.712Z,43.20
2017-06-28T12:13:49.383Z,43.50
2017-06-28T12:16:17.673Z,41.70
2017-06-28T12:18:46.042Z,42.20
2017-06-28T12:21:14.308Z,41.70
2017-06-28T12:23:42.601Z,41.50
2017-06-28T12:26:10.871Z,41.50
2017-06-28T12:28:39.176Z,42.50
2017-06-28T12:31:07.789Z,42.30
2017-06-28T12:33:36.091Z,42.50
2017-06-28T12:36:04.388Z,42.70
2017-06-28T12:38:32.660Z,42.80
2017-06-28T12:41:00.952Z,42.90
2017-06-28T12:43:29.240Z,42.50
2017-06-28T12:45:57.516Z,42.70
2017-06-28T12:48:25.800Z,42.30
2017-06-28T12:50:54.100Z,41.80
2017-06-28T12:53:22.379Z,42.90
2017-06-28T12:55:50.677Z,42.90
2017-06-28T12:58:18.947Z,42.30
2017-06-28T13:00:47.245Z,42.00
2017-06-28T13:03:15.514Z,42.10
2017-06-28T13:05:43.823Z,42.10
2017-06-28T13:08:12.091Z,42.10
2017-06-28T13:10:40.361Z,41.50
2017-06-28T13:13:08.652Z,42.20
2017-06-28T13:15:36.922Z,42.70
2017-06-28T13:18:05.212Z,43.40
2017-06-28T13:20:33.485Z,43.30
2017-06-28T13:23:01.782Z,41.40
2017-06-28T13:25:30.051Z,41.60
2017-06-28T13:27:58.342Z,41.10
2017-06-28T13:30:26.623Z,42.10
2017-06-28T13:32:54.928Z,40.80
2017-06-28T13:35:23.978Z,41.10
2017-06-28T13:37:52.256Z,41.60
2017-06-28T13:40:20.543Z,42.00
2017-06-28T13:42:48.827Z,42.10
2017-06-28T13:45:17.120Z,41.50
2017-06-28T13:47:45.404Z,42.20
2017-06-28T13:50:13.687Z,42.00
2017-06-28T13:52:41.975Z,41.30
2017-06-28T13:55:11.020Z,41.30
2017-06-28T13:57:39.291Z,41.40
2017-06-28T14:00:07.587Z,40.00
2017-06-28T14:02:35.860Z,40.70
2017-06-28T14:05:04.195Z,40.80
2017-06-28T14:07:33.207Z,40.80
2017-06-28T14:10:01.487Z,40.70
2017-06-28T14:12:29.776Z,40.40
2017-06-28T14:14:58.047Z,40.50
2017-06-28T14:17:26.335Z,39.70
2017-06-28T14:19:54.607Z,41.30
2017-06-28T14:22:22.900Z,40.50
2017-06-28T14:24:51.171Z,40.80
2017-06-28T14:27:19.487Z,41.00
2017-06-28T14:29:48.531Z,40.30
2017-06-28T14:32:16.831Z,40.30
2017-06-28T14:34:45.108Z,40.90
2017-06-28T14:37:13.392Z,39.90
2017-06-28T14:39:41.659Z,39.70
2017-06-28T14:42:09.945Z,41.00
2017-06-28T14:44:38.244Z,40.10
2017-06-28T14:47:06.551Z,40.60
2017-06-28T14:49:34.840Z,40.50
2017-06-28T14:52:03.111Z,40.40
2017-06-28T14:54:31.768Z,39.20
2017-06-28T14:57:00.133Z,40.60
2017-06-28T14:59:28.659Z,39.30
2017-06-28T15:01:56.947Z,40.00
2017-06-28T15:04:25.252Z,40.10
2017-06-28T15:06:53.531Z,38.20
2017-06-28T15:09:21.803Z,38.20
2017-06-28T15:11:50.090Z,38.50
2017-06-28T15:14:18.355Z,38.40
2017-06-28T15:16:46.655Z,39.00
2017-06-28T15:19:14.922Z,39.10
2017-06-28T15:21:43.287Z,38.30
2017-06-28T15:24:11.620Z,38.30
2017-06-28T15:26:39.911Z,39.20
2017-06-28T15:29:08.184Z,37.40
2017-06-28T15:31:36.475Z,37.70
2017-06-28T15:34:04.760Z,37.70
2017-06-28T15:36:33.040Z,38.10
2017-06-28T15:39:01.318Z,38.40
2017-06-28T15:41:29.635Z,37.10
2017-06-28T15:43:57.938Z,37.50
2017-06-28T15:46:26.207Z,37.60
2017-06-28T15:48:54.491Z,37.30
2017-06-28T15:51:22.760Z,37.20
2017-06-28T15:54:02.883Z,38.30
2017-06-28T15:56:31.155Z,38.60
2017-06-28T15:58:59.441Z,37.90
2017-06-28T16:01:27.723Z,37.90
2017-06-28T16:03:56.777Z,38.70
2017-06-28T16:06:25.066Z,38.70
2017-06-28T16:08:53.345Z,38.50
2017-06-28T16:11:21.617Z,38.80
2017-06-28T16:13:49.925Z,37.30
2017-06-28T16:16:18.194Z,37.70
2017-06-28T16:18:46.464Z,37.80
2017-06-28T16:21:14.747Z,37.40
2017-06-28T16:23:43.015Z,37.40
2017-06-28T16:26:11.363Z,37.30
2017-06-28T16:28:39.642Z,37.40
2017-06-28T16:31:07.931Z,38.10
2017-06-28T16:33:36.199Z,38.50
2017-06-28T16:36:04.502Z,37.50
2017-06-28T16:38:32.817Z,38.50
2017-06-28T16:41:01.094Z,37.50
2017-06-28T16:43:29.356Z,37.80
2017-06-28T16:45:57.709Z,37.70
2017-06-28T16:48:26.035Z,37.80
2017-06-28T16:50:55.160Z,39.00
2017-06-28T16:53:23.429Z,38.70
2017-06-28T16:55:51.695Z,38.30
2017-06-28T16:58:20.049Z,37.70
2017-06-28T17:00:48.370Z,39.10
2017-06-28T17:03:16.655Z,39.40
2017-06-28T17:05:44.931Z,41.60
2017-06-28T17:08:13.288Z,42.30
2017-06-28T17:10:41.568Z,42.60
2017-06-28T17:13:09.864Z,41.60
2017-06-28T17:15:38.143Z,43.00
2017-06-28T17:18:06.453Z,43.20
2017-06-28T17:20:34.723Z,43.40
2017-06-28T17:23:03.015Z,43.90
2017-06-28T17:25:31.295Z,44.20
2017-06-28T17:27:59.649Z,43.30
2017-06-28T17:30:27.907Z,43.00
2017-06-28T17:32:56.260Z,43.00
2017-06-28T17:35:24.613Z,43.40
2017-06-28T17:37:52.871Z,42.00
2017-06-28T17:40:21.173Z,43.50
2017-06-28T17:42:49.482Z,43.90
2017-06-28T17:45:17.837Z,44.50
2017-06-28T17:47:46.864Z,44.00
2017-06-28T17:50:15.157Z,44.00
2017-06-28T17:52:43.490Z,44.30
2017-06-28T17:55:11.828Z,44.40
2017-06-28T17:57:40.116Z,43.40
2017-06-28T18:00:08.490Z,43.60
2017-06-28T18:02:36.788Z,44.90
2017-06-28T18:05:05.879Z,45.90
2017-06-28T18:07:34.943Z,46.00
2017-06-28T18:10:03.409Z,46.00
2017-06-28T18:12:31.708Z,46.10
2017-06-28T18:14:59.988Z,46.10
2017-06-28T18:17:28.332Z,46.60
2017-06-28T18:19:56.622Z,46.90
2017-06-28T18:22:24.907Z,47.10
2017-06-28T18:24:53.242Z,46.80
2017-06-28T18:27:22.293Z,47.60
2017-06-28T18:29:50.634Z,47.60
2017-06-28T18:32:18.923Z,47.80
2017-06-28T18:34:47.207Z,47.40
2017-06-28T18:37:15.480Z,47.60
2017-06-28T18:39:43.807Z,48.00
2017-06-28T18:42:12.858Z,47.90
2017-06-28T18:44:41.147Z,47.90
2017-06-28T18:47:09.469Z,48.40
2017-06-28T18:49:38.560Z,48.50
2017-06-28T18:52:07.633Z,48.70
2017-06-28T18:54:35.917Z,48.70
2017-06-28T18:57:04.220Z,48.60
2017-06-28T18:59:32.531Z,48.80
2017-06-28T19:02:00.805Z,48.80
2017-06-28T19:04:29.170Z,48.80
2017-06-28T19:06:57.506Z,49.40
2017-06-28T19:09:25.803Z,49.40
2017-06-28T19:11:54.852Z,49.50
2017-06-28T19:14:23.135Z,49.40
2017-06-28T19:16:51.444Z,49.10
2017-06-28T19:19:19.715Z,49.00
2017-06-28T19:21:48.784Z,49.20
2017-06-28T19:24:17.056Z,49.20
2017-06-28T19:26:45.451Z,49.30
2017-06-28T19:29:14.671Z,49.50
2017-06-28T19:31:42.956Z,49.30
2017-06-28T19:34:11.224Z,49.20
2017-06-28T19:36:39.531Z,49.40
2017-06-28T19:39:07.812Z,49.80
2017-06-28T19:41:36.108Z,52.40
2017-06-28T19:44:04.403Z,52.60
2017-06-28T19:46:32.715Z,56.50
2017-06-28T19:49:00.991Z,57.90
2017-06-28T19:51:30.028Z,61.00
2017-06-28T19:53:58.327Z,61.60
2017-06-28T19:56:26.605Z,64.10
2017-06-28T19:58:54.900Z,62.80
2017-06-28T20:01:23.185Z,64.20
2017-06-28T20:03:51.476Z,66.00
2017-06-28T20:06:20.508Z,63.10
2017-06-28T20:08:48.793Z,63.20
2017-06-28T20:11:17.894Z,65.20
2017-06-28T20:13:46.168Z,64.40
2017-06-28T20:16:15.216Z,67.00
2017-06-28T20:18:43.512Z,66.20
2017-06-28T20:21:11.783Z,65.90
2017-06-28T20:23:40.076Z,66.60
2017-06-28T20:26:08.420Z,67.20
2017-06-28T20:28:36.687Z,66.80
2017-06-28T20:31:05.304Z,67.90
2017-06-28T20:33:33.576Z,69.20
2017-06-28T20:36:01.872Z,68.50
2017-06-28T20:38:30.139Z,70.60
2017-06-28T20:40:58.436Z,70.10
2017-06-28T20:43:26.705Z,70.90
2017-06-28T20:45:54.996Z,71.70
2017-06-28T20:48:24.039Z,72.10
2017-06-28T20:50:52.347Z,71.70
2017-06-28T20:53:20.635Z,72.70
2017-06-28T20:55:48.927Z,74.10
2017-06-28T20:58:17.993Z,74.40
2017-06-28T21:00:46.265Z,74.40
2017-06-28T21:03:14.551Z,75.80
2017-06-28T21:05:42.962Z,75.80
2017-06-28T21:08:12.016Z,75.60
2017-06-28T21:10:40.288Z,75.60
2017-06-28T21:13:08.589Z,76.70
2017-06-28T21:15:36.864Z,75.10
2017-06-28T21:18:05.157Z,75.10
2017-06-28T21:20:34.200Z,76.70
2017-06-28T21:23:02.508Z,76.10
2017-06-28T21:25:30.784Z,75.20
2017-06-28T21:27:59.052Z,75.10
2017-06-28T21:30:27.497Z,76.10
2017-06-28T21:32:55.776Z,74.40
2017-06-28T21:35:24.093Z,77.50
2017-06-28T21:37:52.369Z,76.20
2017-06-28T21:40:20.664Z,75.80
2017-06-28T21:42:48.941Z,75.30
2017-06-28T21:45:17.227Z,74.00
2017-06-28T21:47:45.504Z,75.10
2017-06-28T21:50:14.568Z,76.00
2017-06-28T21:52:42.842Z,75.40
2017-06-28T21:55:11.128Z,74.30
2017-06-28T21:57:39.404Z,73.30
2017-06-28T22:00:07.668Z,72.50
2017-06-28T22:02:35.955Z,70.70
2017-06-28T22:05:04.251Z,71.30
2017-06-28T22:07:32.543Z,71.70
2017-06-28T22:10:00.809Z,72.20
2017-06-28T22:12:29.102Z,73.40
2017-06-28T22:14:58.144Z,74.60
2017-06-28T22:17:37.294Z,74.40
2017-06-28T22:20:05.574Z,75.20
2017-06-28T22:22:33.840Z,75.10
2017-06-28T22:25:02.133Z,75.80
2017-06-28T22:27:30.407Z,75.40
2017-06-28T22:29:58.696Z,75.10
2017-06-28T22:32:26.979Z,75.80
2017-06-28T22:34:55.273Z,75.70
2017-06-28T22:37:24.308Z,75.90
2017-06-28T22:39:52.631Z,75.30
2017-06-28T22:42:20.906Z,74.10
2017-06-28T22:44:49.180Z,75.40
2017-06-28T22:47:17.472Z,75.60
2017-06-28T22:49:46.513Z,74.40
2017-06-28T22:52:14.807Z,74.40
2017-06-28T22:54:43.083Z,75.10
2017-06-28T22:57:11.372Z,75.40
2017-06-28T22:59:39.658Z,76.20
2017-06-28T23:02:07.984Z,76.50
2017-06-28T23:04:36.264Z,75.90
2017-06-28T23:07:04.560Z,76.80
2017-06-28T23:09:32.829Z,76.50
2017-06-28T23:12:01.120Z,77.00
2017-06-28T23:14:29.408Z,78.20
2017-06-28T23:16:57.679Z,77.60
2017-06-28T23:19:25.973Z,78.50
2017-06-28T23:21:54.267Z,77.80
2017-06-28T23:24:22.553Z,77.50
2017-06-28T23:26:51.592Z,77.60
2017-06-28T23:29:19.881Z,77.60
2017-06-28T23:31:48.166Z,77.20
2017-06-28T23:34:16.472Z,77.50
2017-06-28T23:36:45.511Z,77.90
2017-06-28T23:39:13.781Z,77.10
2017-06-28T23:41:42.067Z,77.00
2017-06-28T23:44:10.340Z,77.00
2017-06-28T23:46:38.632Z,76.10
2017-06-28T23:49:06.903Z,76.50
2017-06-28T23:51:35.197Z,77.60
2017-06-28T23:54:03.463Z,77.50
2017-06-28T23:56:31.758Z,77.40
2017-06-28T23:59:00.033Z,77.50
